sensor_id;sensor_type;location;lat;lon;timestamp;P1;durP1;ratioP1;P2;durP2;ratioP2
3307;SDS011;1666;48.898;9.182;2023-12-20T00:00:40;4.57;;;3.60;;
3307;SDS011;1666;48.898;9.182;2023-12-20T00:03:10;9.13;;;4.05;;
3307;SDS011;1666;48.898;9.182;2023-12-20T00:05:40;4.63;;;3.15;;
3307;SDS011;1666;48.898;9.182;2023-12-20T00:08:13;3.38;;;3.00;;
3307;SDS011;1666;48.898;9.182;2023-12-20T00:10:43;4.32;;;3.22;;
3307;SDS011;1666;48.898;9.182;2023-12-20T00:13:13;5.40;;;3.20;;
3307;SDS011;1666;48.898;9.182;2023-12-20T00:15:44;5.07;;;3.28;;
3307;SDS011;1666;48.898;9.182;2023-12-20T00:18:13;4.53;;;3.67;;
3307;SDS011;1666;48.898;9.182;2023-12-20T00:20:44;4.90;;;4.00;;
3307;SDS011;1666;48.898;9.182;2023-12-20T00:23:16;5.47;;;4.05;;
3307;SDS011;1666;48.898;9.182;2023-12-20T00:25:46;9.82;;;3.42;;
3307;SDS011;1666;48.898;9.182;2023-12-20T00:28:16;5.40;;;4.10;;
3307;SDS011;1666;48.898;9.182;2023-12-20T00:30:46;6.43;;;3.75;;
3307;SDS011;1666;48.898;9.182;2023-12-20T00:33:16;7.15;;;3.80;;
3307;SDS011;1666;48.898;9.182;2023-12-20T00:35:46;5.35;;;4.40;;
3307;SDS011;1666;48.898;9.182;2023-12-20T00:38:19;7.00;;;4.47;;
3307;SDS011;1666;48.898;9.182;2023-12-20T00:40:49;6.57;;;4.55;;
3307;SDS011;1666;48.898;9.182;2023-12-20T00:43:20;9.75;;;4.43;;
3307;SDS011;1666;48.898;9.182;2023-12-20T00:45:50;6.00;;;4.05;;
3307;SDS011;1666;48.898;9.182;2023-12-20T00:48:20;13.23;;;5.90;;
3307;SDS011;1666;48.898;9.182;2023-12-20T00:50:50;7.07;;;3.88;;
3307;SDS011;1666;48.898;9.182;2023-12-20T00:53:22;4.75;;;3.63;;
3307;SDS011;1666;48.898;9.182;2023-12-20T00:55:53;4.03;;;3.33;;
3307;SDS011;1666;48.898;9.182;2023-12-20T00:58:25;5.05;;;4.03;;
3307;SDS011;1666;48.898;9.182;2023-12-20T01:00:55;6.05;;;4.20;;
3307;SDS011;1666;48.898;9.182;2023-12-20T01:03:26;5.70;;;4.30;;
3307;SDS011;1666;48.898;9.182;2023-12-20T01:05:56;6.97;;;4.63;;
3307;SDS011;1666;48.898;9.182;2023-12-20T01:08:28;5.20;;;4.25;;
3307;SDS011;1666;48.898;9.182;2023-12-20T01:10:58;5.82;;;4.75;;
3307;SDS011;1666;48.898;9.182;2023-12-20T01:13:28;6.85;;;4.43;;
3307;SDS011;1666;48.898;9.182;2023-12-20T01:16:02;4.43;;;3.92;;
3307;SDS011;1666;48.898;9.182;2023-12-20T01:18:32;6.03;;;4.30;;
3307;SDS011;1666;48.898;9.182;2023-12-20T01:21:02;8.25;;;4.20;;
3307;SDS011;1666;48.898;9.182;2023-12-20T01:23:35;5.45;;;4.47;;
3307;SDS011;1666;48.898;9.182;2023-12-20T01:26:05;6.65;;;4.50;;
3307;SDS011;1666;48.898;9.182;2023-12-20T01:28:36;5.63;;;5.03;;
3307;SDS011;1666;48.898;9.182;2023-12-20T01:31:05;7.60;;;5.88;;
3307;SDS011;1666;48.898;9.182;2023-12-20T01:33:36;9.32;;;6.60;;
3307;SDS011;1666;48.898;9.182;2023-12-20T01:36:07;11.40;;;6.68;;
3307;SDS011;1666;48.898;9.182;2023-12-20T01:38:41;8.15;;;6.15;;
3307;SDS011;1666;48.898;9.182;2023-12-20T01:41:11;6.85;;;5.55;;
3307;SDS011;1666;48.898;9.182;2023-12-20T01:43:41;6.20;;;5.55;;
3307;SDS011;1666;48.898;9.182;2023-12-20T01:46:17;7.50;;;5.53;;
3307;SDS011;1666;48.898;9.182;2023-12-20T01:48:48;7.18;;;5.95;;
3307;SDS011;1666;48.898;9.182;2023-12-20T01:51:19;8.60;;;6.28;;
3307;SDS011;1666;48.898;9.182;2023-12-20T01:53:52;6.75;;;6.05;;
3307;SDS011;1666;48.898;9.182;2023-12-20T01:58:54;8.38;;;6.05;;
3307;SDS011;1666;48.898;9.182;2023-12-20T02:01:25;8.50;;;6.80;;
3307;SDS011;1666;48.898;9.182;2023-12-20T02:03:56;12.52;;;6.72;;
3307;SDS011;1666;48.898;9.182;2023-12-20T02:06:26;7.35;;;5.80;;
3307;SDS011;1666;48.898;9.182;2023-12-20T02:09:02;9.68;;;6.20;;
3307;SDS011;1666;48.898;9.182;2023-12-20T02:11:32;6.65;;;5.45;;
3307;SDS011;1666;48.898;9.182;2023-12-20T02:14:02;6.30;;;5.30;;
3307;SDS011;1666;48.898;9.182;2023-12-20T02:16:32;7.75;;;5.43;;
3307;SDS011;1666;48.898;9.182;2023-12-20T02:19:03;6.35;;;5.47;;
3307;SDS011;1666;48.898;9.182;2023-12-20T02:21:38;4.70;;;4.13;;
3307;SDS011;1666;48.898;9.182;2023-12-20T02:24:08;4.22;;;3.67;;
3307;SDS011;1666;48.898;9.182;2023-12-20T02:26:39;5.22;;;3.97;;
3307;SDS011;1666;48.898;9.182;2023-12-20T02:29:12;4.13;;;3.45;;
3307;SDS011;1666;48.898;9.182;2023-12-20T02:31:42;3.83;;;3.30;;
3307;SDS011;1666;48.898;9.182;2023-12-20T02:34:12;3.72;;;3.05;;
3307;SDS011;1666;48.898;9.182;2023-12-20T02:36:45;3.20;;;2.88;;
3307;SDS011;1666;48.898;9.182;2023-12-20T02:39:15;3.92;;;3.22;;
3307;SDS011;1666;48.898;9.182;2023-12-20T02:41:45;2.42;;;2.00;;
3307;SDS011;1666;48.898;9.182;2023-12-20T02:44:15;2.92;;;1.88;;
3307;SDS011;1666;48.898;9.182;2023-12-20T02:46:45;1.98;;;1.70;;
3307;SDS011;1666;48.898;9.182;2023-12-20T02:49:15;1.80;;;1.35;;
3307;SDS011;1666;48.898;9.182;2023-12-20T02:51:48;1.60;;;1.50;;
3307;SDS011;1666;48.898;9.182;2023-12-20T02:54:18;1.75;;;1.38;;
3307;SDS011;1666;48.898;9.182;2023-12-20T02:56:48;1.35;;;0.90;;
3307;SDS011;1666;48.898;9.182;2023-12-20T02:59:19;1.00;;;0.90;;
3307;SDS011;1666;48.898;9.182;2023-12-20T03:01:49;1.58;;;1.17;;
3307;SDS011;1666;48.898;9.182;2023-12-20T03:04:19;1.25;;;0.90;;
3307;SDS011;1666;48.898;9.182;2023-12-20T03:06:51;1.40;;;1.10;;
3307;SDS011;1666;48.898;9.182;2023-12-20T03:09:22;1.77;;;0.90;;
3307;SDS011;1666;48.898;9.182;2023-12-20T03:11:51;1.27;;;0.70;;
3307;SDS011;1666;48.898;9.182;2023-12-20T03:14:21;0.80;;;0.70;;
3307;SDS011;1666;48.898;9.182;2023-12-20T03:16:55;1.33;;;0.77;;
3307;SDS011;1666;48.898;9.182;2023-12-20T03:19:26;1.05;;;0.82;;
3307;SDS011;1666;48.898;9.182;2023-12-20T03:21:59;1.05;;;0.80;;
3307;SDS011;1666;48.898;9.182;2023-12-20T03:24:29;1.15;;;0.90;;
3307;SDS011;1666;48.898;9.182;2023-12-20T03:26:59;1.02;;;0.85;;
3307;SDS011;1666;48.898;9.182;2023-12-20T03:29:29;1.50;;;0.80;;
3307;SDS011;1666;48.898;9.182;2023-12-20T03:31:59;1.58;;;0.88;;
3307;SDS011;1666;48.898;9.182;2023-12-20T03:34:28;1.98;;;0.90;;
3307;SDS011;1666;48.898;9.182;2023-12-20T03:37:01;1.17;;;0.90;;
3307;SDS011;1666;48.898;9.182;2023-12-20T03:39:31;1.50;;;1.13;;
3307;SDS011;1666;48.898;9.182;2023-12-20T03:42:02;1.48;;;0.90;;
3307;SDS011;1666;48.898;9.182;2023-12-20T03:44:32;1.13;;;0.82;;
3307;SDS011;1666;48.898;9.182;2023-12-20T03:47:02;0.90;;;0.80;;
3307;SDS011;1666;48.898;9.182;2023-12-20T03:49:32;1.30;;;0.98;;
3307;SDS011;1666;48.898;9.182;2023-12-20T03:52:06;1.02;;;0.90;;
3307;SDS011;1666;48.898;9.182;2023-12-20T03:54:36;1.40;;;0.90;;
3307;SDS011;1666;48.898;9.182;2023-12-20T03:57:09;4.63;;;1.52;;
3307;SDS011;1666;48.898;9.182;2023-12-20T03:59:39;0.70;;;0.70;;
3307;SDS011;1666;48.898;9.182;2023-12-20T04:02:09;2.13;;;0.85;;
3307;SDS011;1666;48.898;9.182;2023-12-20T04:04:38;0.80;;;0.80;;
3307;SDS011;1666;48.898;9.182;2023-12-20T04:07:11;1.42;;;0.80;;
3307;SDS011;1666;48.898;9.182;2023-12-20T04:09:41;1.33;;;0.90;;
3307;SDS011;1666;48.898;9.182;2023-12-20T04:12:11;0.85;;;0.80;;
3307;SDS011;1666;48.898;9.182;2023-12-20T04:14:41;1.30;;;0.90;;
3307;SDS011;1666;48.898;9.182;2023-12-20T04:17:11;0.85;;;0.75;;
3307;SDS011;1666;48.898;9.182;2023-12-20T04:19:43;1.52;;;1.00;;
3307;SDS011;1666;48.898;9.182;2023-12-20T04:22:16;1.02;;;0.85;;
3307;SDS011;1666;48.898;9.182;2023-12-20T04:24:47;1.23;;;1.10;;
3307;SDS011;1666;48.898;9.182;2023-12-20T04:27:17;1.98;;;1.27;;
3307;SDS011;1666;48.898;9.182;2023-12-20T04:29:47;1.40;;;1.20;;
3307;SDS011;1666;48.898;9.182;2023-12-20T04:32:17;1.13;;;0.90;;
3307;SDS011;1666;48.898;9.182;2023-12-20T04:34:47;2.67;;;1.10;;
3307;SDS011;1666;48.898;9.182;2023-12-20T04:37:19;1.08;;;0.98;;
3307;SDS011;1666;48.898;9.182;2023-12-20T04:39:49;1.23;;;0.88;;
3307;SDS011;1666;48.898;9.182;2023-12-20T04:42:19;1.15;;;0.90;;
3307;SDS011;1666;48.898;9.182;2023-12-20T04:44:49;1.13;;;1.02;;
3307;SDS011;1666;48.898;9.182;2023-12-20T04:47:19;1.75;;;1.17;;
3307;SDS011;1666;48.898;9.182;2023-12-20T04:49:50;3.90;;;1.20;;
3307;SDS011;1666;48.898;9.182;2023-12-20T04:52:23;1.15;;;0.85;;
3307;SDS011;1666;48.898;9.182;2023-12-20T04:54:53;0.82;;;0.70;;
3307;SDS011;1666;48.898;9.182;2023-12-20T04:57:23;1.25;;;0.90;;
3307;SDS011;1666;48.898;9.182;2023-12-20T04:59:53;1.45;;;0.93;;
3307;SDS011;1666;48.898;9.182;2023-12-20T05:02:23;1.60;;;1.20;;
3307;SDS011;1666;48.898;9.182;2023-12-20T05:04:53;1.83;;;1.27;;
3307;SDS011;1666;48.898;9.182;2023-12-20T05:07:25;1.15;;;0.88;;
3307;SDS011;1666;48.898;9.182;2023-12-20T05:09:55;1.10;;;0.98;;
3307;SDS011;1666;48.898;9.182;2023-12-20T05:12:26;1.25;;;1.02;;
3307;SDS011;1666;48.898;9.182;2023-12-20T05:14:55;2.92;;;1.00;;
3307;SDS011;1666;48.898;9.182;2023-12-20T05:17:25;1.10;;;1.00;;
3307;SDS011;1666;48.898;9.182;2023-12-20T05:19:55;1.60;;;1.40;;
3307;SDS011;1666;48.898;9.182;2023-12-20T05:22:28;1.25;;;1.15;;
3307;SDS011;1666;48.898;9.182;2023-12-20T05:24:59;1.80;;;1.63;;
3307;SDS011;1666;48.898;9.182;2023-12-20T05:27:30;1.85;;;1.60;;
3307;SDS011;1666;48.898;9.182;2023-12-20T05:30:00;2.47;;;2.00;;
3307;SDS011;1666;48.898;9.182;2023-12-20T05:32:31;2.40;;;2.08;;
3307;SDS011;1666;48.898;9.182;2023-12-20T05:35:01;3.00;;;2.70;;
3307;SDS011;1666;48.898;9.182;2023-12-20T05:37:34;2.95;;;2.65;;
3307;SDS011;1666;48.898;9.182;2023-12-20T05:40:05;3.33;;;2.90;;
3307;SDS011;1666;48.898;9.182;2023-12-20T05:42:37;3.22;;;2.92;;
3307;SDS011;1666;48.898;9.182;2023-12-20T05:45:07;3.60;;;3.30;;
3307;SDS011;1666;48.898;9.182;2023-12-20T05:47:38;4.10;;;3.70;;
3307;SDS011;1666;48.898;9.182;2023-12-20T05:50:08;4.20;;;3.75;;
3307;SDS011;1666;48.898;9.182;2023-12-20T05:52:41;3.65;;;3.33;;
3307;SDS011;1666;48.898;9.182;2023-12-20T05:55:11;3.30;;;3.00;;
3307;SDS011;1666;48.898;9.182;2023-12-20T05:57:41;4.97;;;3.60;;
3307;SDS011;1666;48.898;9.182;2023-12-20T06:00:13;3.78;;;3.20;;
3307;SDS011;1666;48.898;9.182;2023-12-20T06:02:43;4.07;;;3.45;;
3307;SDS011;1666;48.898;9.182;2023-12-20T06:05:13;4.20;;;3.80;;
3307;SDS011;1666;48.898;9.182;2023-12-20T06:07:46;5.55;;;4.03;;
3307;SDS011;1666;48.898;9.182;2023-12-20T06:10:17;3.65;;;3.28;;
3307;SDS011;1666;48.898;9.182;2023-12-20T06:12:48;3.72;;;3.22;;
3307;SDS011;1666;48.898;9.182;2023-12-20T06:15:19;4.65;;;3.13;;
3307;SDS011;1666;48.898;9.182;2023-12-20T06:17:49;3.40;;;3.10;;
3307;SDS011;1666;48.898;9.182;2023-12-20T06:20:19;4.68;;;3.92;;
3307;SDS011;1666;48.898;9.182;2023-12-20T06:22:52;5.63;;;3.97;;
3307;SDS011;1666;48.898;9.182;2023-12-20T06:25:22;5.03;;;3.63;;
3307;SDS011;1666;48.898;9.182;2023-12-20T06:27:52;4.45;;;3.70;;
3307;SDS011;1666;48.898;9.182;2023-12-20T06:30:22;5.93;;;3.90;;
3307;SDS011;1666;48.898;9.182;2023-12-20T06:32:54;4.88;;;4.35;;
3307;SDS011;1666;48.898;9.182;2023-12-20T06:35:24;6.78;;;4.68;;
3307;SDS011;1666;48.898;9.182;2023-12-20T06:37:57;6.38;;;5.55;;
3307;SDS011;1666;48.898;9.182;2023-12-20T06:40:28;6.95;;;5.35;;
3307;SDS011;1666;48.898;9.182;2023-12-20T06:42:58;5.63;;;5.00;;
3307;SDS011;1666;48.898;9.182;2023-12-20T06:45:41;5.55;;;5.05;;
3307;SDS011;1666;48.898;9.182;2023-12-20T06:48:11;6.28;;;5.68;;
3307;SDS011;1666;48.898;9.182;2023-12-20T06:50:42;7.28;;;5.82;;
3307;SDS011;1666;48.898;9.182;2023-12-20T06:53:15;6.53;;;5.82;;
3307;SDS011;1666;48.898;9.182;2023-12-20T06:55:45;7.65;;;6.40;;
3307;SDS011;1666;48.898;9.182;2023-12-20T06:58:15;6.93;;;6.15;;
3307;SDS011;1666;48.898;9.182;2023-12-20T07:00:45;6.88;;;6.13;;
3307;SDS011;1666;48.898;9.182;2023-12-20T07:03:16;6.28;;;5.68;;
3307;SDS011;1666;48.898;9.182;2023-12-20T07:05:45;7.38;;;6.68;;
3307;SDS011;1666;48.898;9.182;2023-12-20T07:08:18;11.75;;;7.75;;
3307;SDS011;1666;48.898;9.182;2023-12-20T07:10:48;7.50;;;6.78;;
3307;SDS011;1666;48.898;9.182;2023-12-20T07:13:18;7.53;;;6.40;;
3307;SDS011;1666;48.898;9.182;2023-12-20T07:15:48;7.68;;;6.55;;
3307;SDS011;1666;48.898;9.182;2023-12-20T07:18:18;8.48;;;6.85;;
3307;SDS011;1666;48.898;9.182;2023-12-20T07:20:48;7.97;;;7.18;;
3307;SDS011;1666;48.898;9.182;2023-12-20T07:23:21;8.77;;;7.72;;
3307;SDS011;1666;48.898;9.182;2023-12-20T07:25:52;9.60;;;7.97;;
3307;SDS011;1666;48.898;9.182;2023-12-20T07:28:22;9.80;;;8.02;;
3307;SDS011;1666;48.898;9.182;2023-12-20T07:30:52;9.23;;;7.85;;
3307;SDS011;1666;48.898;9.182;2023-12-20T07:33:22;10.07;;;8.07;;
3307;SDS011;1666;48.898;9.182;2023-12-20T07:35:52;9.18;;;8.02;;
3307;SDS011;1666;48.898;9.182;2023-12-20T07:38:25;9.43;;;7.82;;
3307;SDS011;1666;48.898;9.182;2023-12-20T07:40:55;9.50;;;8.07;;
3307;SDS011;1666;48.898;9.182;2023-12-20T07:43:25;8.32;;;7.05;;
3307;SDS011;1666;48.898;9.182;2023-12-20T07:45:55;9.50;;;7.53;;
3307;SDS011;1666;48.898;9.182;2023-12-20T07:48:25;8.40;;;7.25;;
3307;SDS011;1666;48.898;9.182;2023-12-20T07:50:55;8.57;;;6.85;;
3307;SDS011;1666;48.898;9.182;2023-12-20T07:53:27;8.93;;;7.40;;
3307;SDS011;1666;48.898;9.182;2023-12-20T07:55:57;8.75;;;7.13;;
3307;SDS011;1666;48.898;9.182;2023-12-20T07:58:28;7.88;;;7.07;;
3307;SDS011;1666;48.898;9.182;2023-12-20T08:01:16;8.10;;;7.10;;
3307;SDS011;1666;48.898;9.182;2023-12-20T08:03:48;7.47;;;6.22;;
3307;SDS011;1666;48.898;9.182;2023-12-20T08:06:19;7.22;;;6.38;;
3307;SDS011;1666;48.898;9.182;2023-12-20T08:08:53;7.22;;;6.53;;
3307;SDS011;1666;48.898;9.182;2023-12-20T08:11:32;7.07;;;5.97;;
3307;SDS011;1666;48.898;9.182;2023-12-20T08:14:02;9.93;;;6.35;;
3307;SDS011;1666;48.898;9.182;2023-12-20T08:16:32;6.85;;;6.05;;
3307;SDS011;1666;48.898;9.182;2023-12-20T08:19:02;7.25;;;5.72;;
3307;SDS011;1666;48.898;9.182;2023-12-20T08:21:32;7.70;;;5.80;;
3307;SDS011;1666;48.898;9.182;2023-12-20T08:24:07;9.02;;;6.00;;
3307;SDS011;1666;48.898;9.182;2023-12-20T08:26:38;6.07;;;5.45;;
3307;SDS011;1666;48.898;9.182;2023-12-20T08:29:08;6.13;;;5.47;;
3307;SDS011;1666;48.898;9.182;2023-12-20T08:31:38;8.60;;;6.80;;
3307;SDS011;1666;48.898;9.182;2023-12-20T08:34:08;7.28;;;6.13;;
3307;SDS011;1666;48.898;9.182;2023-12-20T08:36:39;8.65;;;5.72;;
3307;SDS011;1666;48.898;9.182;2023-12-20T08:39:11;8.27;;;6.38;;
3307;SDS011;1666;48.898;9.182;2023-12-20T08:41:42;9.98;;;5.60;;
3307;SDS011;1666;48.898;9.182;2023-12-20T08:44:12;6.63;;;5.13;;
3307;SDS011;1666;48.898;9.182;2023-12-20T08:46:43;6.45;;;5.32;;
3307;SDS011;1666;48.898;9.182;2023-12-20T08:49:13;6.20;;;5.15;;
3307;SDS011;1666;48.898;9.182;2023-12-20T08:51:43;7.18;;;5.60;;
3307;SDS011;1666;48.898;9.182;2023-12-20T08:54:16;6.53;;;5.32;;
3307;SDS011;1666;48.898;9.182;2023-12-20T08:56:46;6.63;;;5.05;;
3307;SDS011;1666;48.898;9.182;2023-12-20T08:59:16;7.22;;;5.25;;
3307;SDS011;1666;48.898;9.182;2023-12-20T09:01:46;9.63;;;5.65;;
3307;SDS011;1666;48.898;9.182;2023-12-20T09:04:21;6.05;;;5.20;;
3307;SDS011;1666;48.898;9.182;2023-12-20T09:06:51;14.82;;;5.95;;
3307;SDS011;1666;48.898;9.182;2023-12-20T09:09:23;11.43;;;5.88;;
3307;SDS011;1666;48.898;9.182;2023-12-20T09:11:53;10.73;;;6.35;;
3307;SDS011;1666;48.898;9.182;2023-12-20T09:14:23;13.48;;;8.45;;
3307;SDS011;1666;48.898;9.182;2023-12-20T09:16:53;7.63;;;5.03;;
3307;SDS011;1666;48.898;9.182;2023-12-20T09:19:24;5.18;;;4.20;;
3307;SDS011;1666;48.898;9.182;2023-12-20T09:21:54;6.15;;;5.38;;
3307;SDS011;1666;48.898;9.182;2023-12-20T09:24:26;6.15;;;3.83;;
3307;SDS011;1666;48.898;9.182;2023-12-20T09:26:56;5.97;;;4.45;;
3307;SDS011;1666;48.898;9.182;2023-12-20T09:29:26;8.77;;;4.47;;
3307;SDS011;1666;48.898;9.182;2023-12-20T09:31:56;5.68;;;3.40;;
3307;SDS011;1666;48.898;9.182;2023-12-20T09:34:26;7.07;;;3.67;;
3307;SDS011;1666;48.898;9.182;2023-12-20T09:36:57;7.47;;;3.58;;
3307;SDS011;1666;48.898;9.182;2023-12-20T09:39:29;8.10;;;3.15;;
3307;SDS011;1666;48.898;9.182;2023-12-20T09:42:00;7.10;;;2.90;;
3307;SDS011;1666;48.898;9.182;2023-12-20T09:44:31;5.00;;;2.70;;
3307;SDS011;1666;48.898;9.182;2023-12-20T09:47:02;4.65;;;2.33;;
3307;SDS011;1666;48.898;9.182;2023-12-20T09:49:34;8.65;;;2.88;;
3307;SDS011;1666;48.898;9.182;2023-12-20T09:52:06;5.78;;;2.42;;
3307;SDS011;1666;48.898;9.182;2023-12-20T09:54:41;5.43;;;2.42;;
3307;SDS011;1666;48.898;9.182;2023-12-20T09:57:12;4.78;;;1.90;;
3307;SDS011;1666;48.898;9.182;2023-12-20T09:59:43;6.88;;;2.65;;
3307;SDS011;1666;48.898;9.182;2023-12-20T10:02:13;4.10;;;1.70;;
3307;SDS011;1666;48.898;9.182;2023-12-20T10:04:46;6.75;;;2.30;;
3307;SDS011;1666;48.898;9.182;2023-12-20T10:07:16;8.05;;;2.08;;
3307;SDS011;1666;48.898;9.182;2023-12-20T10:09:51;4.50;;;2.30;;
3307;SDS011;1666;48.898;9.182;2023-12-20T10:12:24;6.90;;;2.25;;
3307;SDS011;1666;48.898;9.182;2023-12-20T10:14:54;7.38;;;2.80;;
3307;SDS011;1666;48.898;9.182;2023-12-20T10:17:24;7.18;;;3.17;;
3307;SDS011;1666;48.898;9.182;2023-12-20T10:19:57;4.13;;;2.42;;
3307;SDS011;1666;48.898;9.182;2023-12-20T10:22:27;5.57;;;2.30;;
3307;SDS011;1666;48.898;9.182;2023-12-20T10:25:00;8.65;;;2.40;;
3307;SDS011;1666;48.898;9.182;2023-12-20T10:27:30;6.68;;;1.98;;
3307;SDS011;1666;48.898;9.182;2023-12-20T10:30:00;5.53;;;2.33;;
3307;SDS011;1666;48.898;9.182;2023-12-20T10:32:31;8.02;;;2.40;;
3307;SDS011;1666;48.898;9.182;2023-12-20T10:35:01;5.47;;;2.03;;
3307;SDS011;1666;48.898;9.182;2023-12-20T10:37:32;6.20;;;2.03;;
3307;SDS011;1666;48.898;9.182;2023-12-20T10:40:08;4.95;;;2.40;;
3307;SDS011;1666;48.898;9.182;2023-12-20T10:42:39;5.28;;;2.10;;
3307;SDS011;1666;48.898;9.182;2023-12-20T10:45:10;5.57;;;1.92;;
3307;SDS011;1666;48.898;9.182;2023-12-20T10:47:40;3.70;;;2.03;;
3307;SDS011;1666;48.898;9.182;2023-12-20T10:50:12;8.68;;;2.58;;
3307;SDS011;1666;48.898;9.182;2023-12-20T10:52:42;5.15;;;1.83;;
3307;SDS011;1666;48.898;9.182;2023-12-20T10:55:16;6.65;;;2.08;;
3307;SDS011;1666;48.898;9.182;2023-12-20T10:57:46;8.00;;;2.28;;
3307;SDS011;1666;48.898;9.182;2023-12-20T11:00:19;5.72;;;2.00;;
3307;SDS011;1666;48.898;9.182;2023-12-20T11:02:51;7.28;;;2.17;;
3307;SDS011;1666;48.898;9.182;2023-12-20T11:05:26;4.93;;;1.95;;
3307;SDS011;1666;48.898;9.182;2023-12-20T11:08:10;5.90;;;1.85;;
3307;SDS011;1666;48.898;9.182;2023-12-20T11:10:49;5.53;;;1.50;;
3307;SDS011;1666;48.898;9.182;2023-12-20T11:13:27;7.82;;;1.65;;
3307;SDS011;1666;48.898;9.182;2023-12-20T11:16:00;5.40;;;2.00;;
3307;SDS011;1666;48.898;9.182;2023-12-20T11:18:31;6.50;;;1.67;;
3307;SDS011;1666;48.898;9.182;2023-12-20T11:21:04;3.72;;;1.52;;
3307;SDS011;1666;48.898;9.182;2023-12-20T11:23:34;3.22;;;1.73;;
3307;SDS011;1666;48.898;9.182;2023-12-20T11:26:07;5.18;;;2.00;;
3307;SDS011;1666;48.898;9.182;2023-12-20T11:28:37;5.10;;;1.60;;
3307;SDS011;1666;48.898;9.182;2023-12-20T11:31:07;5.68;;;2.20;;
3307;SDS011;1666;48.898;9.182;2023-12-20T11:33:37;5.45;;;2.10;;
3307;SDS011;1666;48.898;9.182;2023-12-20T11:36:12;7.78;;;2.20;;
3307;SDS011;1666;48.898;9.182;2023-12-20T11:41:35;5.30;;;2.50;;
3307;SDS011;1666;48.898;9.182;2023-12-20T11:44:06;8.80;;;2.72;;
3307;SDS011;1666;48.898;9.182;2023-12-20T11:46:38;5.68;;;2.60;;
3307;SDS011;1666;48.898;9.182;2023-12-20T11:49:08;6.13;;;2.53;;
3307;SDS011;1666;48.898;9.182;2023-12-20T11:51:41;6.00;;;2.80;;
3307;SDS011;1666;48.898;9.182;2023-12-20T11:54:11;9.93;;;2.90;;
3307;SDS011;1666;48.898;9.182;2023-12-20T11:56:47;6.70;;;2.55;;
3307;SDS011;1666;48.898;9.182;2023-12-20T11:59:17;7.95;;;2.90;;
3307;SDS011;1666;48.898;9.182;2023-12-20T12:01:50;5.32;;;2.60;;
3307;SDS011;1666;48.898;9.182;2023-12-20T12:04:23;5.53;;;2.53;;
3307;SDS011;1666;48.898;9.182;2023-12-20T12:06:53;6.50;;;3.28;;
3307;SDS011;1666;48.898;9.182;2023-12-20T12:09:23;8.27;;;3.03;;
3307;SDS011;1666;48.898;9.182;2023-12-20T12:11:56;7.60;;;3.15;;
3307;SDS011;1666;48.898;9.182;2023-12-20T12:14:26;6.80;;;2.40;;
3307;SDS011;1666;48.898;9.182;2023-12-20T12:16:56;9.40;;;2.63;;
3307;SDS011;1666;48.898;9.182;2023-12-20T12:19:26;7.10;;;2.63;;
3307;SDS011;1666;48.898;9.182;2023-12-20T12:22:04;9.57;;;5.28;;
3307;SDS011;1666;48.898;9.182;2023-12-20T12:24:40;10.93;;;4.15;;
3307;SDS011;1666;48.898;9.182;2023-12-20T12:27:13;5.40;;;2.40;;
3307;SDS011;1666;48.898;9.182;2023-12-20T12:32:34;9.75;;;2.70;;
3307;SDS011;1666;48.898;9.182;2023-12-20T12:35:05;7.57;;;2.35;;
3307;SDS011;1666;48.898;9.182;2023-12-20T12:37:37;4.15;;;2.30;;
3307;SDS011;1666;48.898;9.182;2023-12-20T12:40:09;7.63;;;2.15;;
3307;SDS011;1666;48.898;9.182;2023-12-20T12:42:43;6.30;;;2.28;;
3307;SDS011;1666;48.898;9.182;2023-12-20T12:45:14;6.88;;;2.95;;
3307;SDS011;1666;48.898;9.182;2023-12-20T12:47:44;8.50;;;3.00;;
3307;SDS011;1666;48.898;9.182;2023-12-20T12:50:15;6.07;;;2.70;;
3307;SDS011;1666;48.898;9.182;2023-12-20T12:52:46;5.95;;;2.88;;
3307;SDS011;1666;48.898;9.182;2023-12-20T12:55:16;7.40;;;2.92;;
3307;SDS011;1666;48.898;9.182;2023-12-20T12:57:49;5.00;;;3.00;;
3307;SDS011;1666;48.898;9.182;2023-12-20T13:00:19;4.93;;;2.50;;
3307;SDS011;1666;48.898;9.182;2023-12-20T13:02:49;5.85;;;2.22;;
3307;SDS011;1666;48.898;9.182;2023-12-20T13:05:19;5.88;;;2.10;;
3307;SDS011;1666;48.898;9.182;2023-12-20T13:07:49;5.80;;;2.53;;
3307;SDS011;1666;48.898;9.182;2023-12-20T13:10:20;6.63;;;2.20;;
3307;SDS011;1666;48.898;9.182;2023-12-20T13:12:53;5.45;;;2.53;;
3307;SDS011;1666;48.898;9.182;2023-12-20T13:15:23;6.40;;;2.08;;
3307;SDS011;1666;48.898;9.182;2023-12-20T13:17:53;8.05;;;2.03;;
3307;SDS011;1666;48.898;9.182;2023-12-20T13:20:23;6.38;;;1.90;;
3307;SDS011;1666;48.898;9.182;2023-12-20T13:22:53;4.95;;;2.13;;
3307;SDS011;1666;48.898;9.182;2023-12-20T13:25:23;4.65;;;1.75;;
3307;SDS011;1666;48.898;9.182;2023-12-20T13:27:56;3.72;;;2.17;;
3307;SDS011;1666;48.898;9.182;2023-12-20T13:30:26;4.82;;;1.90;;
3307;SDS011;1666;48.898;9.182;2023-12-20T13:32:56;5.93;;;2.15;;
3307;SDS011;1666;48.898;9.182;2023-12-20T13:35:26;4.07;;;1.60;;
3307;SDS011;1666;48.898;9.182;2023-12-20T13:37:57;5.40;;;1.90;;
3307;SDS011;1666;48.898;9.182;2023-12-20T13:40:27;6.70;;;2.47;;
3307;SDS011;1666;48.898;9.182;2023-12-20T13:43:00;6.47;;;2.10;;
3307;SDS011;1666;48.898;9.182;2023-12-20T13:45:30;4.07;;;2.13;;
3307;SDS011;1666;48.898;9.182;2023-12-20T13:48:00;7.25;;;1.80;;
3307;SDS011;1666;48.898;9.182;2023-12-20T13:50:31;5.43;;;1.70;;
3307;SDS011;1666;48.898;9.182;2023-12-20T13:53:01;6.30;;;2.40;;
3307;SDS011;1666;48.898;9.182;2023-12-20T13:55:31;6.78;;;2.47;;
3307;SDS011;1666;48.898;9.182;2023-12-20T13:58:03;7.00;;;3.08;;
3307;SDS011;1666;48.898;9.182;2023-12-20T14:00:33;4.80;;;2.30;;
3307;SDS011;1666;48.898;9.182;2023-12-20T14:03:04;4.35;;;2.22;;
3307;SDS011;1666;48.898;9.182;2023-12-20T14:05:34;9.43;;;2.95;;
3307;SDS011;1666;48.898;9.182;2023-12-20T14:08:05;5.47;;;2.33;;
3307;SDS011;1666;48.898;9.182;2023-12-20T14:10:36;7.13;;;2.33;;
3307;SDS011;1666;48.898;9.182;2023-12-20T14:13:08;7.88;;;2.70;;
3307;SDS011;1666;48.898;9.182;2023-12-20T14:15:38;4.10;;;2.00;;
3307;SDS011;1666;48.898;9.182;2023-12-20T14:18:08;5.35;;;2.25;;
3307;SDS011;1666;48.898;9.182;2023-12-20T14:20:41;11.88;;;3.78;;
3307;SDS011;1666;48.898;9.182;2023-12-20T14:23:13;7.00;;;2.92;;
3307;SDS011;1666;48.898;9.182;2023-12-20T14:25:43;6.97;;;3.22;;
3307;SDS011;1666;48.898;9.182;2023-12-20T14:30:51;10.75;;;4.45;;
3307;SDS011;1666;48.898;9.182;2023-12-20T14:33:21;9.65;;;4.43;;
3307;SDS011;1666;48.898;9.182;2023-12-20T14:35:52;11.15;;;4.38;;
3307;SDS011;1666;48.898;9.182;2023-12-20T14:38:22;11.27;;;3.60;;
3307;SDS011;1666;48.898;9.182;2023-12-20T14:40:53;9.13;;;3.33;;
3307;SDS011;1666;48.898;9.182;2023-12-20T14:43:26;10.43;;;3.53;;
3307;SDS011;1666;48.898;9.182;2023-12-20T14:45:56;8.15;;;3.47;;
3307;SDS011;1666;48.898;9.182;2023-12-20T14:48:26;15.80;;;6.93;;
3307;SDS011;1666;48.898;9.182;2023-12-20T14:50:56;7.60;;;2.63;;
3307;SDS011;1666;48.898;9.182;2023-12-20T14:53:26;7.43;;;2.60;;
3307;SDS011;1666;48.898;9.182;2023-12-20T14:55:56;8.10;;;2.78;;
3307;SDS011;1666;48.898;9.182;2023-12-20T14:58:29;8.23;;;3.10;;
3307;SDS011;1666;48.898;9.182;2023-12-20T15:01:00;9.07;;;3.00;;
3307;SDS011;1666;48.898;9.182;2023-12-20T15:03:31;21.98;;;9.63;;
3307;SDS011;1666;48.898;9.182;2023-12-20T15:06:01;11.77;;;3.67;;
3307;SDS011;1666;48.898;9.182;2023-12-20T15:08:31;9.57;;;3.42;;
3307;SDS011;1666;48.898;9.182;2023-12-20T15:11:01;6.47;;;2.65;;
3307;SDS011;1666;48.898;9.182;2023-12-20T15:13:34;8.38;;;3.22;;
3307;SDS011;1666;48.898;9.182;2023-12-20T15:16:04;6.70;;;3.00;;
3307;SDS011;1666;48.898;9.182;2023-12-20T15:18:35;11.45;;;3.03;;
3307;SDS011;1666;48.898;9.182;2023-12-20T15:21:05;8.52;;;3.30;;
3307;SDS011;1666;48.898;9.182;2023-12-20T15:23:35;9.85;;;3.63;;
3307;SDS011;1666;48.898;9.182;2023-12-20T15:26:07;8.80;;;2.63;;
3307;SDS011;1666;48.898;9.182;2023-12-20T15:28:39;6.93;;;2.80;;
3307;SDS011;1666;48.898;9.182;2023-12-20T15:31:10;8.55;;;3.22;;
3307;SDS011;1666;48.898;9.182;2023-12-20T15:33:40;5.47;;;2.40;;
3307;SDS011;1666;48.898;9.182;2023-12-20T15:36:10;7.07;;;2.70;;
3307;SDS011;1666;48.898;9.182;2023-12-20T15:38:40;8.30;;;3.70;;
3307;SDS011;1666;48.898;9.182;2023-12-20T15:41:16;5.43;;;3.08;;
3307;SDS011;1666;48.898;9.182;2023-12-20T15:43:49;6.97;;;3.05;;
3307;SDS011;1666;48.898;9.182;2023-12-20T15:46:19;14.98;;;8.02;;
3307;SDS011;1666;48.898;9.182;2023-12-20T15:48:50;14.98;;;6.20;;